Time;durP1;ratioP1;P1;durP2;ratioP2;P2;SDS_P1;SDS_P2;PMS_P1;PMS_P2;Temp;Humidity;BMP_temperature;BMP_pressure;BME280_temperature;BME280_humidity;BME280_pressure;Samples;Min_cycle;Max_cycle;Signal;HPM_P1;HPM_P2
2020/12/15 00:01:54;;;;;;;10.05;6.97;;;6.30;99.90;;;;;;4987593;28;20018;-81
2020/12/15 00:04:20;;;;;;;12.02;6.93;;;6.30;99.90;;;;;;5004336;28;20393;-82
2020/12/15 00:06:46;;;;;;;11.45;7.95;;;6.40;99.90;;;;;;5016113;28;20423;-83
2020/12/15 00:09:12;;;;;;;23.42;13.70;;;6.50;99.90;;;;;;4999185;28;20030;-84
2020/12/15 00:11:38;;;;;;;19.80;13.02;;;6.80;99.90;;;;;;4996828;28;20030;-83
2020/12/15 00:14:03;;;;;;;9.65;6.75;;;6.70;99.90;;;;;;5014013;28;20490;-81
2020/12/15 00:16:29;;;;;;;9.93;7.40;;;6.60;99.90;;;;;;4996417;28;20025;-81
2020/12/15 00:18:55;;;;;;;10.43;6.63;;;6.50;99.90;;;;;;5014368;28;20390;-80
2020/12/15 00:21:22;;;;;;;9.65;7.18;;;6.60;99.90;;;;;;4996253;28;20045;-81
2020/12/15 00:23:52;;;;;;;10.45;6.85;;;6.60;99.90;;;;;;4996510;28;20115;-81
2020/12/15 00:26:18;;;;;;;8.80;6.22;;;6.50;99.90;;;;;;5012847;28;20050;-82
2020/12/15 00:28:44;;;;;;;8.68;6.50;;;6.40;99.90;;;;;;5014049;28;20037;-82
2020/12/15 00:31:10;;;;;;;8.52;6.22;;;6.40;99.90;;;;;;4995830;28;20022;-83
2020/12/15 00:33:36;;;;;;;11.25;7.15;;;6.40;99.90;;;;;;5014110;28;20034;-82
2020/12/15 00:36:03;;;;;;;8.43;6.57;;;6.40;99.90;;;;;;5013977;28;20373;-81
2020/12/15 00:38:29;;;;;;;10.15;7.03;;;6.40;99.90;;;;;;4996572;28;20037;-83
2020/12/15 00:40:55;;;;;;;9.48;6.72;;;6.40;99.90;;;;;;4996225;28;20179;-81
2020/12/15 00:43:21;;;;;;;10.68;7.07;;;6.40;99.90;;;;;;4996445;28;20113;-83
2020/12/15 00:45:47;;;;;;;8.70;6.53;;;6.40;99.90;;;;;;4995707;28;20037;-84
2020/12/15 00:48:13;;;;;;;10.43;7.03;;;6.40;99.90;;;;;;4995951;28;20022;-86
2020/12/15 00:50:39;;;;;;;8.77;6.47;;;6.40;99.90;;;;;;4991489;28;20374;-84
2020/12/15 00:53:05;;;;;;;10.10;6.72;;;6.40;99.90;;;;;;4984639;28;20080;-83
2020/12/15 00:55:31;;;;;;;8.77;6.38;;;6.40;99.90;;;;;;4994130;28;20026;-84
2020/12/15 00:57:57;;;;;;;10.65;6.82;;;6.30;99.90;;;;;;4991572;28;20113;-84
2020/12/15 01:00:23;;;;;;;8.77;6.72;;;6.40;99.90;;;;;;4992155;28;20121;-83
2020/12/15 01:02:49;;;;;;;8.43;6.13;;;6.30;99.90;;;;;;4976610;28;20049;-85
2020/12/15 01:05:15;;;;;;;8.85;6.72;;;6.30;99.90;;;;;;4992668;28;20034;-85
2020/12/15 01:07:41;;;;;;;9.73;6.43;;;6.20;99.90;;;;;;4993964;28;20030;-84
2020/12/15 01:10:07;;;;;;;9.68;7.10;;;6.20;99.90;;;;;;4995874;28;20694;-85
2020/12/15 01:12:33;;;;;;;10.40;6.07;;;6.20;99.90;;;;;;5013572;28;20033;-86
2020/12/15 01:14:59;;;;;;;10.20;6.90;;;6.30;99.90;;;;;;4995873;28;20100;-83
2020/12/15 01:17:25;;;;;;;9.93;7.50;;;6.30;99.90;;;;;;4996077;28;20025;-84
2020/12/15 01:19:51;;;;;;;9.32;6.78;;;6.50;99.90;;;;;;4995988;28;20037;-84
2020/12/15 01:22:16;;;;;;;10.63;7.03;;;6.40;99.90;;;;;;5013254;28;20405;-85
2020/12/15 01:24:42;;;;;;;9.18;6.75;;;6.30;99.90;;;;;;4995329;28;20022;-83
2020/12/15 01:27:09;;;;;;;10.57;6.95;;;6.30;99.90;;;;;;5011932;28;20535;-84
2020/12/15 01:29:35;;;;;;;9.63;7.13;;;6.20;99.90;;;;;;4996000;28;20030;-85
2020/12/15 01:32:02;;;;;;;11.15;7.22;;;6.20;99.90;;;;;;4995578;28;20050;-85
2020/12/15 01:34:29;;;;;;;8.55;6.53;;;6.20;99.90;;;;;;4995763;28;20030;-86
2020/12/15 01:36:56;;;;;;;10.45;7.00;;;6.30;99.90;;;;;;5013255;28;20030;-85
2020/12/15 01:39:23;;;;;;;10.73;6.30;;;6.30;99.90;;;;;;4995656;28;20022;-86
2020/12/15 01:41:49;;;;;;;9.20;6.28;;;6.20;99.90;;;;;;5012634;28;20025;-85
2020/12/15 01:44:15;;;;;;;9.38;6.70;;;6.10;99.90;;;;;;4995238;28;20030;-85
2020/12/15 01:46:41;;;;;;;8.63;6.35;;;6.20;99.90;;;;;;4995048;28;20029;-83
2020/12/15 01:49:08;;;;;;;11.43;6.88;;;6.20;99.90;;;;;;5013408;28;20021;-84
2020/12/15 01:51:34;;;;;;;9.40;6.28;;;6.30;99.90;;;;;;5012980;28;20072;-83
2020/12/15 01:54:01;;;;;;;9.57;6.40;;;6.30;99.90;;;;;;5012776;28;20117;-82
2020/12/15 01:56:27;;;;;;;9.85;6.78;;;6.40;99.90;;;;;;5012896;28;20413;-84
2020/12/15 01:58:56;;;;;;;9.73;7.18;;;6.50;99.90;;;;;;4995043;28;20093;-83
2020/12/15 02:01:23;;;;;;;10.57;7.53;;;6.40;99.90;;;;;;5011226;28;20105;-83
2020/12/15 02:03:49;;;;;;;11.88;7.68;;;6.20;99.90;;;;;;5013205;28;20030;-82
2020/12/15 02:06:16;;;;;;;9.00;6.55;;;6.30;99.90;;;;;;5014101;28;20447;-82
2020/12/15 02:08:43;;;;;;;8.57;6.45;;;6.20;99.90;;;;;;5014339;28;20029;-81
2020/12/15 02:11:09;;;;;;;9.50;6.75;;;6.20;99.90;;;;;;5031962;28;20043;-82
2020/12/15 02:13:36;;;;;;;9.73;7.05;;;6.20;99.90;;;;;;5014214;28;20485;-82
2020/12/15 02:16:03;;;;;;;10.60;6.70;;;6.20;99.90;;;;;;5014108;28;20021;-82
2020/12/15 02:18:29;;;;;;;9.60;6.72;;;6.30;99.90;;;;;;5013856;28;20026;-83
2020/12/15 02:20:55;;;;;;;12.35;8.32;;;6.30;99.90;;;;;;5031825;28;20025;-83
2020/12/15 02:23:21;;;;;;;11.25;6.95;;;6.30;99.90;;;;;;5014236;28;20032;-82
2020/12/15 02:25:47;;;;;;;10.27;7.38;;;6.20;99.90;;;;;;5013962;28;20432;-84
2020/12/15 02:28:13;;;;;;;9.90;6.97;;;6.20;99.90;;;;;;5031660;28;20026;-85
2020/12/15 02:30:38;;;;;;;11.80;8.20;;;6.20;99.90;;;;;;5031944;28;20053;-85
2020/12/15 02:33:04;;;;;;;11.10;7.38;;;6.30;99.90;;;;;;5031509;28;20032;-82
2020/12/15 02:35:30;;;;;;;9.98;7.43;;;6.30;99.90;;;;;;5014541;28;20032;-81
2020/12/15 02:37:56;;;;;;;9.82;6.57;;;6.30;99.90;;;;;;5014491;28;20034;-85
2020/12/15 02:40:21;;;;;;;10.93;7.45;;;6.50;99.90;;;;;;5032409;28;20078;-84
2020/12/15 02:42:47;;;;;;;10.27;7.35;;;6.30;99.90;;;;;;5014383;28;20037;-83
2020/12/15 02:45:13;;;;;;;9.90;6.40;;;6.20;99.90;;;;;;5014300;28;20062;-84
2020/12/15 02:47:39;;;;;;;10.40;7.43;;;6.20;99.90;;;;;;5013737;28;20022;-80
2020/12/15 02:50:05;;;;;;;10.38;7.07;;;6.30;99.90;;;;;;5031470;28;20030;-81
2020/12/15 02:52:30;;;;;;;9.55;7.03;;;6.20;99.90;;;;;;5014506;28;20461;-84
2020/12/15 02:54:56;;;;;;;9.10;6.30;;;6.30;99.90;;;;;;5032223;28;20474;-82
2020/12/15 02:57:22;;;;;;;10.85;7.35;;;6.20;99.90;;;;;;5031350;28;20052;-83
2020/12/15 02:59:48;;;;;;;9.18;6.82;;;6.20;99.90;;;;;;5031492;28;20500;-83
2020/12/15 03:02:19;;;;;;;9.93;7.20;;;6.30;99.90;;;;;;5031394;28;20032;-81
2020/12/15 03:04:46;;;;;;;9.30;6.40;;;6.30;99.90;;;;;;5024346;28;20018;-82
2020/12/15 03:07:13;;;;;;;10.13;6.50;;;6.30;99.90;;;;;;4994097;28;20489;-82
2020/12/15 03:09:40;;;;;;;9.98;7.47;;;6.30;99.90;;;;;;5011761;28;20401;-82
2020/12/15 03:12:05;;;;;;;9.68;6.65;;;6.30;99.90;;;;;;5011380;28;20111;-82
2020/12/15 03:14:31;;;;;;;11.20;7.57;;;6.30;99.90;;;;;;4993806;28;20030;-82
2020/12/15 03:16:57;;;;;;;10.95;7.28;;;6.30;99.90;;;;;;4994112;28;20493;-80
2020/12/15 03:19:23;;;;;;;10.25;6.63;;;6.30;99.90;;;;;;4993849;28;20033;-81
2020/12/15 03:21:48;;;;;;;11.18;7.00;;;6.30;99.90;;;;;;4997558;28;20026;-80
2020/12/15 03:24:14;;;;;;;11.93;7.45;;;6.40;99.90;;;;;;5015076;28;20529;-81
2020/12/15 03:26:40;;;;;;;10.07;6.88;;;6.20;99.90;;;;;;5015050;28;20133;-82
2020/12/15 03:29:06;;;;;;;11.48;7.20;;;6.30;99.90;;;;;;5015163;28;20406;-81
2020/12/15 03:31:32;;;;;;;10.25;7.55;;;6.30;99.90;;;;;;4997310;28;20076;-80
2020/12/15 03:33:58;;;;;;;10.07;7.05;;;6.30;99.90;;;;;;5015033;28;20029;-81
2020/12/15 03:36:23;;;;;;;10.32;7.32;;;6.40;99.90;;;;;;5014842;28;20095;-84
2020/12/15 03:38:49;;;;;;;9.55;6.97;;;6.40;99.90;;;;;;5015002;28;20057;-82
2020/12/15 03:41:15;;;;;;;10.45;6.50;;;6.40;99.90;;;;;;4997555;28;20118;-81
2020/12/15 03:43:40;;;;;;;10.30;7.20;;;6.40;99.90;;;;;;4997084;28;20120;-82
2020/12/15 03:46:06;;;;;;;9.50;6.95;;;6.30;99.90;;;;;;4996800;28;20105;-80
2020/12/15 03:48:32;;;;;;;8.77;6.78;;;6.30;99.90;;;;;;4997086;28;20060;-82
2020/12/15 03:50:58;;;;;;;10.57;7.18;;;6.30;99.90;;;;;;5014583;28;20037;-82
2020/12/15 03:53:23;;;;;;;9.48;6.80;;;6.30;99.90;;;;;;4997101;28;20033;-83
2020/12/15 03:55:49;;;;;;;10.25;7.40;;;6.40;99.90;;;;;;4997220;28;20041;-83
2020/12/15 03:58:16;;;;;;;11.93;8.27;;;6.40;99.90;;;;;;4997013;28;20438;-83
2020/12/15 04:00:42;;;;;;;10.25;7.72;;;6.30;99.90;;;;;;5014833;28;20026;-83
2020/12/15 04:03:08;;;;;;;10.50;7.35;;;6.20;99.90;;;;;;4996999;28;20359;-84
2020/12/15 04:05:34;;;;;;;12.68;8.23;;;6.20;99.90;;;;;;5014780;28;20014;-83
2020/12/15 04:08:00;;;;;;;10.90;7.97;;;6.20;99.90;;;;;;4996616;28;20030;-83
2020/12/15 04:10:26;;;;;;;11.63;8.02;;;6.10;99.90;;;;;;4997198;28;20083;-83
2020/12/15 04:12:51;;;;;;;10.25;7.50;;;6.00;99.90;;;;;;5014851;28;20025;-84
2020/12/15 04:15:17;;;;;;;10.75;8.07;;;6.10;99.90;;;;;;4997428;28;20041;-83
2020/12/15 04:17:43;;;;;;;15.25;8.55;;;6.20;99.90;;;;;;4996768;28;20022;-82
2020/12/15 04:20:09;;;;;;;12.75;8.13;;;6.30;99.90;;;;;;4996951;28;20029;-82
2020/12/15 04:22:35;;;;;;;12.05;8.25;;;6.50;99.90;;;;;;4996237;28;20044;-82
2020/12/15 04:25:01;;;;;;;12.65;8.75;;;6.30;99.90;;;;;;4996190;28;20390;-83
2020/12/15 04:27:27;;;;;;;13.68;8.68;;;6.10;99.90;;;;;;4996639;28;20041;-83
2020/12/15 04:29:53;;;;;;;14.27;9.27;;;6.20;99.90;;;;;;4996562;28;20029;-84
2020/12/15 04:32:19;;;;;;;14.32;8.90;;;6.20;99.90;;;;;;4995316;28;20037;-82
2020/12/15 04:34:45;;;;;;;14.50;9.07;;;6.30;99.90;;;;;;5014044;28;20037;-80
2020/12/15 04:37:11;;;;;;;14.70;9.68;;;6.10;99.90;;;;;;4996386;28;20033;-81
2020/12/15 04:39:37;;;;;;;13.00;8.95;;;6.00;99.90;;;;;;5013730;28;20030;-84
2020/12/15 04:42:02;;;;;;;14.05;8.65;;;6.10;99.90;;;;;;5014187;28;20018;-82
2020/12/15 04:44:28;;;;;;;11.68;7.68;;;6.20;99.90;;;;;;4996032;28;20410;-83
2020/12/15 04:47:00;;;;;;;12.80;8.88;;;6.10;99.90;;;;;;4996163;28;20030;-83
2020/12/15 04:49:28;;;;;;;13.18;8.45;;;6.20;99.90;;;;;;4996224;28;20433;-84
2020/12/15 04:51:57;;;;;;;13.40;8.75;;;6.10;99.90;;;;;;4996174;28;20524;-83
2020/12/15 04:54:30;;;;;;;13.68;8.80;;;6.10;99.90;;;;;;4995992;28;20044;-83
2020/12/15 04:57:01;;;;;;;15.30;9.38;;;6.10;99.90;;;;;;5013963;28;20026;-83
2020/12/15 04:59:31;;;;;;;12.88;8.43;;;6.10;99.90;;;;;;5013392;28;20087;-84
2020/12/15 05:02:05;;;;;;;13.98;9.00;;;6.10;99.90;;;;;;4996144;28;20025;-86
2020/12/15 05:04:41;;;;;;;13.82;9.20;;;6.00;99.90;;;;;;4997926;28;20069;-82
2020/12/15 05:07:08;;;;;;;14.07;8.43;;;6.20;99.90;;;;;;5015438;28;20388;-82
2020/12/15 05:09:35;;;;;;;12.45;8.52;;;6.20;99.90;;;;;;5033236;28;20545;-82
2020/12/15 05:12:01;;;;;;;12.98;8.32;;;6.30;99.90;;;;;;5015402;28;20030;-85
2020/12/15 05:14:28;;;;;;;12.20;8.55;;;6.20;99.90;;;;;;5032815;28;20121;-84
2020/12/15 05:16:54;;;;;;;14.52;8.80;;;6.30;99.90;;;;;;5033599;28;20022;-83
2020/12/15 05:19:20;;;;;;;13.27;9.63;;;6.40;99.90;;;;;;5032511;28;20025;-83
2020/12/15 05:21:59;;;;;;;13.57;8.82;;;6.40;99.90;;;;;;5033251;28;20415;-83
2020/12/15 05:24:28;;;;;;;12.60;8.45;;;6.40;99.90;;;;;;5032874;28;20029;-84
2020/12/15 05:26:57;;;;;;;12.93;8.75;;;6.50;99.90;;;;;;5032788;28;20121;-84
2020/12/15 05:29:24;;;;;;;11.90;8.88;;;6.60;99.90;;;;;;5014993;28;20124;-86
2020/12/15 05:31:50;;;;;;;11.55;8.32;;;6.60;99.90;;;;;;5032899;28;20025;-85
2020/12/15 05:34:26;;;;;;;14.57;9.27;;;6.60;99.90;;;;;;5014655;28;20036;-84
2020/12/15 05:36:58;;;;;;;14.88;8.95;;;6.70;99.90;;;;;;5032753;28;20049;-83
2020/12/15 05:39:24;;;;;;;16.30;8.65;;;6.70;99.90;;;;;;5032170;28;20022;-84
2020/12/15 05:42:07;;;;;;;15.88;9.45;;;6.70;99.90;;;;;;5015216;28;20080;-83
2020/12/15 05:44:35;;;;;;;15.10;9.90;;;6.70;99.90;;;;;;5032298;28;20085;-83
2020/12/15 05:47:06;;;;;;;13.93;8.80;;;6.70;99.90;;;;;;5014505;28;20025;-83
2020/12/15 05:49:33;;;;;;;19.45;9.02;;;6.80;99.90;;;;;;5014727;28;20029;-84
2020/12/15 05:52:00;;;;;;;14.57;8.95;;;6.80;99.90;;;;;;5014592;28;20025;-84
2020/12/15 05:54:26;;;;;;;12.95;9.07;;;6.80;99.90;;;;;;5032504;28;20484;-83
2020/12/15 05:57:03;;;;;;;14.80;9.18;;;6.80;99.90;;;;;;5014384;28;20400;-82
2020/12/15 05:59:29;;;;;;;15.77;9.90;;;6.80;99.90;;;;;;5031858;28;20036;-83
2020/12/15 06:02:04;;;;;;;15.02;9.52;;;6.80;99.90;;;;;;5014814;28;20116;-84
2020/12/15 06:04:31;;;;;;;14.05;8.93;;;6.80;99.90;;;;;;5013390;28;20397;-84
2020/12/15 06:06:59;;;;;;;14.73;9.38;;;6.50;99.90;;;;;;5012423;28;20022;-85
2020/12/15 06:09:28;;;;;;;15.15;9.10;;;6.40;99.90;;;;;;4994693;28;20141;-83
2020/12/15 06:11:53;;;;;;;16.42;9.15;;;6.40;99.90;;;;;;5012481;28;20069;-83
2020/12/15 06:14:19;;;;;;;16.23;9.70;;;6.40;99.90;;;;;;5011671;28;20080;-83
2020/12/15 06:16:45;;;;;;;12.70;8.40;;;6.50;99.90;;;;;;4994662;28;20017;-83
2020/12/15 06:19:12;;;;;;;13.32;8.73;;;6.30;99.90;;;;;;4994271;28;20359;-84
2020/12/15 06:21:53;;;;;;;14.73;8.73;;;6.40;99.90;;;;;;5011975;28;20445;-80
2020/12/15 06:24:40;;;;;;;14.65;9.85;;;6.40;99.90;;;;;;5012570;28;20029;-85
2020/12/15 06:27:08;;;;;;;22.58;13.48;;;6.80;99.90;;;;;;4994332;28;20390;-81
2020/12/15 06:29:36;;;;;;;25.45;15.95;;;6.90;99.90;;;;;;5011841;28;20033;-83
2020/12/15 06:32:16;;;;;;;42.00;22.27;;;7.50;99.90;;;;;;4993764;28;20030;-83
2020/12/15 06:34:44;;;;;;;27.83;15.02;;;7.90;99.90;;;;;;5011566;28;20044;-84
2020/12/15 06:37:10;;;;;;;25.80;14.48;;;8.10;99.90;;;;;;5006156;28;20101;-85
2020/12/15 06:39:37;;;;;;;50.80;29.73;;;7.90;99.90;;;;;;4994292;28;20117;-82
2020/12/15 06:42:06;;;;;;;16.38;11.02;;;7.60;99.90;;;;;;4994100;28;20501;-83
2020/12/15 06:44:36;;;;;;;15.88;8.93;;;7.20;99.90;;;;;;4993644;28;20057;-82
2020/12/15 06:47:06;;;;;;;13.60;8.80;;;6.90;99.90;;;;;;5011351;28;20037;-82
2020/12/15 06:49:36;;;;;;;12.98;8.38;;;6.80;99.90;;;;;;4993880;28;20058;-82
2020/12/15 06:52:06;;;;;;;14.90;9.23;;;6.70;99.90;;;;;;4993834;28;20022;-82
2020/12/15 06:54:38;;;;;;;14.07;9.65;;;6.80;99.90;;;;;;4991792;28;20026;-84
2020/12/15 06:57:07;;;;;;;12.60;8.85;;;6.70;99.90;;;;;;4996964;28;20129;-81
2020/12/15 06:59:39;;;;;;;12.80;8.57;;;6.70;99.90;;;;;;4997174;28;20143;-81
2020/12/15 07:02:16;;;;;;;11.95;8.63;;;6.80;99.90;;;;;;4998047;28;20421;-85
2020/12/15 07:04:47;;;;;;;37.15;21.38;;;6.90;99.90;;;;;;4998044;28;20153;-84
2020/12/15 07:07:16;;;;;;;52.53;29.30;;;7.30;99.90;;;;;;5016116;28;20386;-84
2020/12/15 07:09:44;;;;;;;20.67;12.57;;;7.80;99.90;;;;;;5015954;28;20048;-85
2020/12/15 07:12:12;;;;;;;18.17;10.48;;;7.70;99.90;;;;;;4998268;28;20616;-84
2020/12/15 07:17:52;;;;;;;27.90;16.75;;;7.40;99.90;;;;;;5084300;23;20107;-84
2020/12/15 07:20:20;;;;;;;27.92;16.73;;;7.50;99.90;;;;;;5034355;28;20222;-83
2020/12/15 07:22:45;;;;;;;27.58;16.77;;;7.50;99.90;;;;;;5016529;28;20033;-84
2020/12/15 07:25:13;;;;;;;26.05;15.18;;;7.50;99.90;;;;;;5016261;28;20047;-84
2020/12/15 07:27:41;;;;;;;24.10;13.45;;;7.30;99.90;;;;;;5016402;28;20029;-81
2020/12/15 07:30:11;;;;;;;23.75;14.18;;;7.30;99.90;;;;;;5015747;28;20013;-79
2020/12/15 07:32:38;;;;;;;18.08;11.85;;;7.20;99.90;;;;;;5016124;28;20034;-80
2020/12/15 07:35:13;;;;;;;22.05;11.98;;;7.20;99.90;;;;;;5033974;28;20080;-80
2020/12/15 07:37:41;;;;;;;17.95;11.98;;;7.20;99.90;;;;;;5034731;28;20025;-80
2020/12/15 07:40:15;;;;;;;20.20;12.35;;;7.20;99.90;;;;;;5016741;28;20416;-80
2020/12/15 07:42:41;;;;;;;20.90;11.75;;;7.30;99.90;;;;;;5034430;28;20052;-79
2020/12/15 07:45:10;;;;;;;19.85;11.23;;;7.40;99.90;;;;;;5016457;28;20029;-81
2020/12/15 07:47:41;;;;;;;17.88;11.73;;;7.30;99.90;;;;;;5034778;28;20036;-81
2020/12/15 07:50:07;;;;;;;;;;;7.30;99.90;;;;;;5034613;28;20026;-82
2020/12/15 07:52:38;;;;;;;19.17;10.90;;;7.40;99.90;;;;;;5034468;28;19905;-81
2020/12/15 07:55:08;;;;;;;;;;;7.30;99.90;;;;;;5034578;28;20030;-83
2020/12/15 07:57:36;;;;;;;16.48;10.25;;;7.40;99.90;;;;;;5016739;28;19912;-85
2020/12/15 08:00:22;;;;;;;16.30;10.48;;;7.50;99.90;;;;;;5025198;28;20029;-83
2020/12/15 08:02:48;;;;;;;16.35;10.40;;;7.40;99.90;;;;;;5015201;28;20034;-85
2020/12/15 08:05:16;;;;;;;15.35;10.25;;;7.20;99.90;;;;;;5014450;28;20018;-83
2020/12/15 08:07:46;;;;;;;17.13;10.95;;;7.20;99.90;;;;;;4996617;28;20018;-84
2020/12/15 08:10:13;;;;;;;15.52;10.13;;;7.30;99.90;;;;;;4996532;28;20112;-83
2020/12/15 08:12:41;;;;;;;16.75;10.48;;;7.40;99.90;;;;;;5013221;28;20033;-83
2020/12/15 08:15:08;;;;;;;15.75;10.20;;;7.40;99.90;;;;;;5014077;28;20026;-83
2020/12/15 08:17:34;;;;;;;19.75;10.93;;;7.40;99.90;;;;;;4996362;28;20049;-83
2020/12/15 08:20:07;;;;;;;19.38;11.02;;;7.50;99.90;;;;;;5014351;28;20030;-84
2020/12/15 08:22:41;;;;;;;16.00;10.02;;;7.60;99.90;;;;;;5013237;28;20016;-83
2020/12/15 08:25:09;;;;;;;15.95;10.40;;;7.70;99.90;;;;;;4998708;28;20045;-82
2020/12/15 08:27:35;;;;;;;17.33;10.25;;;7.80;99.90;;;;;;5033487;28;20043;-83
2020/12/15 08:30:17;;;;;;;19.25;10.77;;;8.10;99.90;;;;;;5015677;28;20017;-82
2020/12/15 08:32:48;;;;;;;16.63;10.10;;;8.40;99.90;;;;;;5033788;28;20033;-82
2020/12/15 08:35:14;;;;;;;21.10;10.77;;;8.50;99.90;;;;;;5026376;28;20033;-83
2020/12/15 08:37:44;;;;;;;18.48;11.07;;;8.60;99.90;;;;;;4996062;28;20072;-82
2020/12/15 08:40:11;;;;;;;16.87;10.90;;;8.70;99.90;;;;;;5023197;28;20373;-82
2020/12/15 08:42:42;;;;;;;17.70;10.40;;;8.70;99.90;;;;;;5015720;28;20100;-82
2020/12/15 08:45:11;;;;;;;;;;;8.50;99.90;;;;;;5016530;28;20041;-81
2020/12/15 08:47:46;;;;;;;18.67;11.13;;;8.50;99.90;;;;;;5016004;28;19905;-82
2020/12/15 08:50:15;;;;;;;17.35;11.05;;;8.40;99.90;;;;;;5033233;28;20049;-83
2020/12/15 08:52:41;;;;;;;18.48;11.23;;;8.60;99.90;;;;;;5033188;28;20415;-83
2020/12/15 08:55:07;;;;;;;19.30;10.60;;;8.70;99.90;;;;;;5032988;28;20040;-83
2020/12/15 08:57:34;;;;;;;17.45;10.80;;;9.00;99.90;;;;;;5033201;28;20045;-83
2020/12/15 09:00:14;;;;;;;17.73;11.00;;;9.10;99.90;;;;;;5033009;28;20022;-81
2020/12/15 09:02:40;;;;;;;18.58;11.45;;;9.30;99.90;;;;;;5006440;28;20029;-84
2020/12/15 09:05:14;;;;;;;16.65;11.50;;;9.10;99.90;;;;;;5000479;28;20025;-82
2020/12/15 09:07:40;;;;;;;16.58;10.57;;;9.20;99.90;;;;;;5011256;28;20044;-80
2020/12/15 09:10:24;;;;;;;21.50;10.13;;;9.10;99.90;;;;;;5023883;28;20014;-81
2020/12/15 09:12:49;;;;;;;18.33;10.70;;;9.30;99.90;;;;;;5012625;28;20033;-79
2020/12/15 09:15:15;;;;;;;18.42;10.70;;;9.60;99.60;;;;;;5012486;28;20034;-79
2020/12/15 09:17:41;;;;;;;16.63;11.13;;;9.50;99.30;;;;;;4994363;28;20509;-80
2020/12/15 09:20:08;;;;;;;17.27;11.10;;;9.70;99.40;;;;;;4995472;28;20028;-81
2020/12/15 09:22:38;;;;;;;18.13;10.95;;;10.30;97.70;;;;;;5012470;28;20018;-80
2020/12/15 09:25:13;;;;;;;15.68;10.15;;;10.60;96.20;;;;;;5003548;28;20032;-80
2020/12/15 09:27:44;;;;;;;21.83;10.13;;;10.90;94.80;;;;;;5014374;28;20033;-80
2020/12/15 09:30:12;;;;;;;16.95;10.05;;;11.30;94.30;;;;;;5032345;28;20245;-80
2020/12/15 09:32:38;;;;;;;17.90;10.40;;;11.20;93.30;;;;;;5014508;28;20369;-82
2020/12/15 09:35:04;;;;;;;16.00;10.38;;;11.00;92.60;;;;;;4997518;28;20590;-80
2020/12/15 09:37:30;;;;;;;18.15;10.50;;;11.30;92.60;;;;;;4986034;28;20052;-80
2020/12/15 09:39:57;;;;;;;17.70;10.18;;;11.50;91.50;;;;;;5006528;28;20068;-80
2020/12/15 09:42:24;;;;;;;16.17;9.77;;;11.70;91.10;;;;;;5011945;28;20128;-80
2020/12/15 09:44:51;;;;;;;17.13;10.57;;;11.90;90.20;;;;;;5017853;28;20033;-80
2020/12/15 09:47:17;;;;;;;16.15;10.70;;;11.70;90.50;;;;;;5009225;28;20030;-80
2020/12/15 09:49:42;;;;;;;16.20;9.70;;;11.80;90.30;;;;;;5012174;28;20339;-80
2020/12/15 09:52:08;;;;;;;15.18;9.70;;;12.20;89.30;;;;;;4993969;28;20045;-80
2020/12/15 09:54:34;;;;;;;17.58;10.00;;;12.30;86.00;;;;;;5011520;28;20038;-79
2020/12/15 09:57:00;;;;;;;17.45;10.15;;;12.70;84.90;;;;;;4990449;28;20116;-80
2020/12/15 09:59:26;;;;;;;15.50;9.38;;;13.10;81.70;;;;;;5010707;28;20018;-80
2020/12/15 10:01:52;;;;;;;14.95;9.50;;;13.30;80.10;;;;;;5007875;28;20033;-79
2020/12/15 10:04:18;;;;;;;14.55;9.18;;;13.40;78.70;;;;;;5005023;28;20022;-83
2020/12/15 10:06:46;;;;;;;15.38;9.23;;;13.60;76.50;;;;;;5009276;28;20018;-81
2020/12/15 10:09:12;;;;;;;18.40;10.77;;;13.30;81.30;;;;;;4991781;28;20025;-81
2020/12/15 10:11:38;;;;;;;17.23;9.85;;;13.90;81.20;;;;;;5010939;28;20085;-84
2020/12/15 10:14:03;;;;;;;17.58;10.00;;;14.50;78.50;;;;;;4993155;28;20073;-82
2020/12/15 10:16:29;;;;;;;16.25;8.70;;;15.50;75.50;;;;;;4993870;28;20041;-82
2020/12/15 10:18:55;;;;;;;14.88;9.65;;;15.80;71.80;;;;;;4994019;28;20188;-80
2020/12/15 10:22:00;;;;;;;13.90;9.55;;;15.70;70.90;;;;;;5011917;28;20025;-83
2020/12/15 10:24:29;;;;;;;14.63;8.65;;;15.50;70.10;;;;;;5011015;28;20018;-81
2020/12/15 10:26:57;;;;;;;14.50;8.18;;;16.10;67.70;;;;;;5010639;28;20025;-83
2020/12/15 10:29:26;;;;;;;13.85;8.98;;;16.20;66.20;;;;;;5009035;28;20013;-80
2020/12/15 10:31:52;;;;;;;14.82;8.85;;;16.10;66.50;;;;;;5024744;28;20037;-79
2020/12/15 10:34:18;;;;;;;13.50;8.18;;;15.70;67.80;;;;;;5000956;28;20240;-79
2020/12/15 10:36:47;;;;;;;13.93;9.32;;;15.80;67.10;;;;;;5009634;28;20053;-80
2020/12/15 10:39:13;;;;;;;13.88;9.02;;;15.30;67.00;;;;;;5011189;28;20362;-79
2020/12/15 10:42:34;;;;;;;;;;;;;;;;;;;;;
2020/12/15 10:47:35;;;;;;;13.98;8.90;;;15.40;67.00;;;;;;5391259;22;20052;-79
2020/12/15 10:50:15;;;;;;;12.70;8.02;;;15.50;66.20;;;;;;5012490;28;20018;-79
2020/12/15 10:52:41;;;;;;;14.65;9.00;;;15.80;67.10;;;;;;5017870;28;20075;-79
2020/12/15 10:55:06;;;;;;;14.50;8.95;;;15.90;64.00;;;;;;5026884;28;20026;-79
2020/12/15 10:57:32;;;;;;;13.40;8.35;;;15.30;65.10;;;;;;5027051;28;20028;-79
2020/12/15 10:59:58;;;;;;;13.52;9.18;;;16.00;66.70;;;;;;5020812;28;20394;-79
2020/12/15 11:02:24;;;;;;;14.45;7.75;;;16.10;63.70;;;;;;5007289;28;20029;-80
2020/12/15 11:04:49;;;;;;;13.73;8.63;;;16.30;63.10;;;;;;5010513;28;20033;-81
2020/12/15 11:07:16;;;;;;;14.15;8.15;;;15.90;63.50;;;;;;4993211;28;20374;-80
2020/12/15 11:09:42;;;;;;;15.23;8.73;;;16.00;63.40;;;;;;4993187;28;20045;-80
2020/12/15 11:12:07;;;;;;;16.48;8.60;;;16.10;62.80;;;;;;5010914;28;20053;-80
2020/12/15 11:14:34;;;;;;;14.38;7.88;;;16.40;62.30;;;;;;5010830;28;20084;-80
2020/12/15 11:17:00;;;;;;;12.95;8.68;;;16.20;61.80;;;;;;5010891;28;20026;-80
2020/12/15 11:19:26;;;;;;;13.52;8.20;;;15.80;62.10;;;;;;4991612;28;20183;-81
2020/12/15 11:21:52;;;;;;;13.93;7.60;;;15.70;63.30;;;;;;5012908;28;20108;-80
2020/12/15 11:24:18;;;;;;;12.65;7.65;;;16.50;62.70;;;;;;4990551;28;20026;-82
2020/12/15 11:26:44;;;;;;;12.30;7.95;;;15.80;63.30;;;;;;5009681;28;20045;-79
2020/12/15 11:29:09;;;;;;;12.18;8.32;;;15.80;63.20;;;;;;5010730;28;20029;-82
2020/12/15 11:31:35;;;;;;;12.75;8.25;;;16.10;62.90;;;;;;5021451;28;20017;-80
2020/12/15 11:34:01;;;;;;;12.23;8.02;;;16.50;61.60;;;;;;5003523;28;20126;-83
2020/12/15 11:36:29;;;;;;;12.45;8.50;;;15.80;61.20;;;;;;5000402;28;20365;-78
2020/12/15 11:38:54;;;;;;;14.95;9.15;;;15.30;63.80;;;;;;5018557;28;20106;-80
2020/12/15 11:41:26;;;;;;;12.45;8.00;;;15.10;64.90;;;;;;5004014;28;20097;-79
2020/12/15 11:43:52;;;;;;;11.60;7.07;;;15.90;64.60;;;;;;5004562;28;20076;-80
2020/12/15 11:46:17;;;;;;;10.40;6.55;;;16.50;62.20;;;;;;5004033;28;20025;-80
2020/12/15 11:48:43;;;;;;;12.80;7.40;;;16.40;59.80;;;;;;5001041;28;20033;-78
2020/12/15 11:51:09;;;;;;;10.90;7.32;;;15.60;62.00;;;;;;5004999;28;20064;-79
2020/12/15 11:53:35;;;;;;;13.23;7.50;;;16.00;62.10;;;;;;5018236;28;20041;-78
2020/12/15 11:56:00;;;;;;;13.20;7.90;;;16.60;61.70;;;;;;5001024;28;20053;-80
2020/12/15 11:58:26;;;;;;;12.68;7.93;;;17.00;61.10;;;;;;5021607;28;20020;-79
2020/12/15 12:00:52;;;;;;;14.27;7.53;;;16.40;61.10;;;;;;5023100;28;20097;-78
2020/12/15 12:03:17;;;;;;;11.23;6.90;;;16.80;60.10;;;;;;5023168;28;20093;-78
2020/12/15 12:05:43;;;;;;;10.98;7.05;;;16.50;60.00;;;;;;5002927;28;20037;-80
2020/12/15 12:08:09;;;;;;;13.55;7.57;;;15.50;60.80;;;;;;5008647;28;20056;-80
2020/12/15 12:10:35;;;;;;;11.18;7.78;;;15.70;62.90;;;;;;5024396;28;20022;-80
2020/12/15 12:13:01;;;;;;;11.30;7.32;;;16.20;62.30;;;;;;5005006;28;20112;-80
2020/12/15 12:15:27;;;;;;;13.23;7.45;;;16.50;60.50;;;;;;5022806;28;20053;-80
2020/12/15 12:17:53;;;;;;;13.00;7.90;;;17.00;60.10;;;;;;5023844;28;20593;-79
2020/12/15 12:20:19;;;;;;;13.45;8.45;;;16.90;59.60;;;;;;5021006;28;20465;-78
2020/12/15 12:22:45;;;;;;;13.52;8.60;;;17.10;58.90;;;;;;5022103;28;20044;-80
2020/12/15 12:25:11;;;;;;;14.07;8.60;;;17.30;58.10;;;;;;5022520;28;20104;-79
2020/12/15 12:27:37;;;;;;;13.57;7.90;;;17.00;58.00;;;;;;5021003;28;20014;-79
2020/12/15 12:30:04;;;;;;;12.43;7.60;;;16.90;59.70;;;;;;5020945;28;20041;-80
2020/12/15 12:32:31;;;;;;;16.38;9.18;;;17.30;59.40;;;;;;5003668;28;20034;-79
2020/12/15 12:34:58;;;;;;;13.80;8.85;;;17.60;58.40;;;;;;5022355;28;20028;-79
2020/12/15 12:37:25;;;;;;;15.60;9.25;;;16.90;57.60;;;;;;5021427;28;20088;-79
2020/12/15 12:39:51;;;;;;;14.98;9.65;;;16.50;58.90;;;;;;5021408;28;20021;-79
2020/12/15 12:42:17;;;;;;;14.70;9.65;;;16.60;60.20;;;;;;5002288;28;20034;-79
2020/12/15 12:44:42;;;;;;;16.60;10.00;;;16.90;59.40;;;;;;5001624;28;20542;-80
2020/12/15 12:47:08;;;;;;;14.73;9.25;;;16.80;59.20;;;;;;5004109;28;20096;-79
2020/12/15 12:49:34;;;;;;;14.52;8.88;;;16.40;59.50;;;;;;5003266;28;20128;-79
2020/12/15 12:52:00;;;;;;;14.60;8.80;;;16.60;59.70;;;;;;5022752;28;20017;-80
2020/12/15 12:54:26;;;;;;;14.75;9.02;;;17.00;59.40;;;;;;5018290;28;20091;-79